Time;durP1;ratioP1;P1;durP2;ratioP2;P2;SDS_P1;SDS_P2;PMS_P1;PMS_P2;Temp;Humidity;BMP_temperature;BMP_pressure;BME280_temperature;BME280_humidity;BME280_pressure;Samples;Min_cycle;Max_cycle;Signal;HPM_P1;HPM_P2
2022/09/14 00:01:38;;;;;;;;;;;;;;;;;;5007382;28;20497;-74
2022/09/14 00:04:17;;;;;;;4.30;1.48;;;;;;;;;;5006629;28;19925;-72
2022/09/14 00:06:48;;;;;;;4.30;1.30;;;;;;;;;;5007056;28;20053;-72
2022/09/14 00:09:22;;;;;;;5.85;1.08;;;;;;;;;;5005499;28;20385;-70
2022/09/14 00:11:52;;;;;;;7.28;1.42;;;;;;;;;;5007189;28;20046;-72
2022/09/14 00:14:22;;;;;;;4.35;1.10;;;;;;;;;;5007477;28;20058;-76
2022/09/14 00:16:52;;;;;;;2.05;1.10;;;;;;;;;;5007053;28;20062;-74
2022/09/14 00:19:24;;;;;;;6.75;1.27;;;;;;;;;;5006860;28;20045;-74
2022/09/14 00:21:57;;;;;;;3.15;1.35;;;;;;;;;;5005059;28;20049;-72
2022/09/14 00:24:31;;;;;;;6.60;1.35;;;;;;;;;;5007207;28;20042;-73
2022/09/14 00:27:04;;;;;;;5.10;1.30;;;;;;;;;;5006701;28;20054;-71
2022/09/14 00:29:35;;;;;;;5.65;1.50;;;;;;;;;;5005863;28;20401;-72
2022/09/14 00:32:06;;;;;;;5.05;1.10;;;;;;;;;;5007804;28;20046;-74
2022/09/14 00:34:36;;;;;;;6.03;1.17;;;;;;;;;;5009889;28;20076;-71
2022/09/14 00:37:05;;;;;;;;;;;;;;;;;;4995693;28;20427;-74
2022/09/14 00:39:35;;;;;;;4.20;1.30;;;;;;;;;;4991502;28;19925;-75
2022/09/14 00:42:07;;;;;;;9.63;1.27;;;;;;;;;;4990864;28;20054;-72
2022/09/14 00:44:36;;;;;;;4.18;1.50;;;;;;;;;;4991159;28;20042;-75
2022/09/14 00:47:06;;;;;;;3.80;1.05;;;;;;;;;;4990812;28;20038;-76
2022/09/14 00:49:39;;;;;;;3.47;1.40;;;;;;;;;;4991093;28;20054;-76
2022/09/14 00:52:15;;;;;;;6.57;1.40;;;;;;;;;;4990275;28;20053;-74
2022/09/14 00:54:50;;;;;;;3.92;1.10;;;;;;;;;;4987652;28;20054;-74
2022/09/14 00:57:22;;;;;;;5.45;1.80;;;;;;;;;;4989374;28;20069;-72
2022/09/14 00:59:53;;;;;;;3.15;1.55;;;;;;;;;;4988916;28;20497;-74
2022/09/14 01:02:26;;;;;;;6.32;1.60;;;;;;;;;;4988993;28;20061;-74
2022/09/14 01:04:56;;;;;;;3.88;1.27;;;;;;;;;;4988467;28;20046;-72
2022/09/14 01:07:37;;;;;;;3.97;1.17;;;;;;;;;;4989445;28;20054;-73
2022/09/14 01:10:39;;;;;;;5.88;1.40;;;;;;;;;;4990157;28;20087;-75
2022/09/14 01:13:45;;;;;;;4.25;1.27;;;;;;;;;;4990803;28;20077;-73
2022/09/14 01:16:30;;;;;;;3.75;0.85;;;;;;;;;;4990392;28;20832;-73
2022/09/14 01:19:05;;;;;;;2.95;1.27;;;;;;;;;;4990555;28;20413;-73
2022/09/14 01:21:40;;;;;;;4.00;1.30;;;;;;;;;;4990237;28;20528;-71
2022/09/14 01:24:46;;;;;;;2.88;1.08;;;;;;;;;;4990376;28;20046;-75
2022/09/14 01:27:34;;;;;;;2.10;1.00;;;;;;;;;;4990617;28;20043;-73
2022/09/14 01:30:07;;;;;;;;;;;;;;;;;;4991178;28;20050;-72
2022/09/14 01:32:58;;;;;;;3.67;1.08;;;;;;;;;;4989894;28;19922;-72
2022/09/14 01:35:47;;;;;;;4.22;1.20;;;;;;;;;;4990225;28;20042;-74
2022/09/14 01:38:47;;;;;;;7.38;1.30;;;;;;;;;;4990298;28;20042;-74
2022/09/14 01:41:23;;;;;;;3.53;1.40;;;;;;;;;;4987787;28;20054;-73
2022/09/14 01:44:04;;;;;;;4.30;1.05;;;;;;;;;;4990255;28;20050;-73
2022/09/14 01:46:50;;;;;;;3.33;1.20;;;;;;;;;;4989579;28;20046;-73
2022/09/14 01:49:32;;;;;;;3.40;1.08;;;;;;;;;;4988530;28;20073;-74
2022/09/14 01:52:13;;;;;;;5.25;1.60;;;;;;;;;;4990355;28;20046;-74
2022/09/14 01:54:54;;;;;;;1.67;1.10;;;;;;;;;;4989883;28;20110;-71
2022/09/14 01:57:31;;;;;;;2.50;1.20;;;;;;;;;;4990215;28;20062;-74
2022/09/14 02:00:08;;;;;;;3.22;1.20;;;;;;;;;;4990126;28;20049;-73
2022/09/14 02:02:51;;;;;;;2.50;1.00;;;;;;;;;;4988275;28;20062;-72
2022/09/14 02:05:34;;;;;;;6.03;1.20;;;;;;;;;;4989416;28;20058;-73
2022/09/14 02:08:05;;;;;;;4.85;1.20;;;;;;;;;;4989366;28;20042;-72
2022/09/14 02:10:35;;;;;;;8.00;1.05;;;;;;;;;;4989387;28;20057;-74
2022/09/14 02:13:06;;;;;;;4.28;1.48;;;;;;;;;;4989386;28;20057;-74
2022/09/14 02:15:36;;;;;;;8.98;1.58;;;;;;;;;;4988818;28;20069;-74
2022/09/14 02:18:07;;;;;;;2.92;1.10;;;;;;;;;;4989673;28;20039;-73
2022/09/14 02:20:49;;;;;;;2.83;1.35;;;;;;;;;;4989543;28;20053;-75
2022/09/14 02:23:19;;;;;;;3.75;0.95;;;;;;;;;;4988271;28;20050;-73
2022/09/14 02:25:49;;;;;;;3.17;0.93;;;;;;;;;;4989611;28;20054;-73
2022/09/14 02:28:21;;;;;;;4.20;1.25;;;;;;;;;;4989780;28;20054;-73
2022/09/14 02:31:22;;;;;;;4.65;1.30;;;;;;;;;;4989524;28;20058;-72
2022/09/14 02:34:28;;;;;;;3.20;1.20;;;;;;;;;;4989321;28;20061;-71
2022/09/14 02:37:04;;;;;;;7.57;1.10;;;;;;;;;;4989158;28;20057;-72
2022/09/14 02:40:02;;;;;;;8.15;1.17;;;;;;;;;;4989506;28;20051;-74
2022/09/14 02:42:46;;;;;;;1.98;0.88;;;;;;;;;;4988858;28;20042;-73
2022/09/14 02:45:38;;;;;;;4.50;1.45;;;;;;;;;;4988631;28;20050;-71
2022/09/14 02:48:30;;;;;;;3.45;1.13;;;;;;;;;;4989354;28;20054;-75
2022/09/14 02:51:15;;;;;;;2.70;1.00;;;;;;;;;;4989219;28;20061;-74
2022/09/14 02:53:55;;;;;;;3.80;0.93;;;;;;;;;;4988403;28;20050;-74
2022/09/14 02:56:27;;;;;;;1.88;1.20;;;;;;;;;;4988347;28;20054;-73
2022/09/14 02:58:57;;;;;;;4.03;0.95;;;;;;;;;;4988849;28;20050;-75
2022/09/14 03:01:26;;;;;;;;;;;;;;;;;;4988879;28;20073;-74
2022/09/14 03:03:56;;;;;;;1.55;0.98;;;;;;;;;;4988167;28;19930;-74
2022/09/14 03:06:26;;;;;;;4.18;1.25;;;;;;;;;;4988442;28;20073;-73
2022/09/14 03:08:56;;;;;;;1.65;1.13;;;;;;;;;;4986791;28;20058;-73
2022/09/14 03:11:25;;;;;;;;;;;;;;;;;;4989068;28;20524;-73
2022/09/14 03:13:55;;;;;;;4.05;0.80;;;;;;;;;;4988521;28;20373;-72
2022/09/14 03:16:24;;;;;;;;;;;;;;;;;;4989247;28;20054;-75
2022/09/14 03:18:54;;;;;;;4.47;1.58;;;;;;;;;;4988157;28;19926;-72
2022/09/14 03:21:23;;;;;;;;;;;;;;;;;;4988299;28;20054;-73
2022/09/14 03:23:54;;;;;;;2.25;1.00;;;;;;;;;;4988748;28;20297;-73
2022/09/14 03:26:26;;;;;;;1.92;1.15;;;;;;;;;;4988555;28;20417;-75
2022/09/14 03:28:57;;;;;;;4.50;1.20;;;;;;;;;;4987908;28;20050;-75
2022/09/14 03:31:27;;;;;;;4.15;1.38;;;;;;;;;;4989050;28;20061;-72
2022/09/14 03:33:59;;;;;;;2.28;1.30;;;;;;;;;;4987549;28;20069;-75
2022/09/14 03:36:30;;;;;;;2.75;1.15;;;;;;;;;;4987961;28;20046;-72
2022/09/14 03:39:00;;;;;;;2.08;1.20;;;;;;;;;;4988829;28;20069;-74
2022/09/14 03:41:30;;;;;;;3.03;1.40;;;;;;;;;;4988540;28;20046;-73
2022/09/14 03:44:00;;;;;;;5.57;1.60;;;;;;;;;;4987113;28;20054;-72
2022/09/14 03:46:30;;;;;;;3.30;1.20;;;;;;;;;;4988180;28;20054;-71
2022/09/14 03:49:00;;;;;;;7.20;1.52;;;;;;;;;;4987864;28;20050;-74
2022/09/14 03:51:30;;;;;;;4.13;1.40;;;;;;;;;;4988384;28;20054;-73
2022/09/14 03:53:59;;;;;;;5.30;1.80;;;;;;;;;;4987419;28;20054;-72
2022/09/14 03:56:29;;;;;;;2.25;1.13;;;;;;;;;;4987619;28;20072;-74
2022/09/14 03:58:59;;;;;;;2.08;1.08;;;;;;;;;;4988086;28;20054;-72
2022/09/14 04:01:29;;;;;;;;;;;;;;;;;;4987904;28;20501;-72
2022/09/14 04:03:59;;;;;;;4.47;1.60;;;;;;;;;;4987199;28;20452;-74
2022/09/14 04:06:29;;;;;;;4.47;1.63;;;;;;;;;;4987361;28;20524;-74
2022/09/14 04:08:59;;;;;;;5.43;1.98;;;;;;;;;;4985793;28;20061;-73
2022/09/14 04:11:30;;;;;;;;;;;;;;;;;;4988549;28;20493;-74
2022/09/14 04:14:01;;;;;;;3.90;1.90;;;;;;;;;;4987596;28;19972;-72
2022/09/14 04:16:32;;;;;;;2.63;1.00;;;;;;;;;;4987575;28;20512;-74
2022/09/14 04:19:03;;;;;;;5.65;0.88;;;;;;;;;;4987083;28;20166;-74
2022/09/14 04:21:33;;;;;;;2.17;1.35;;;;;;;;;;4987363;28;20501;-74
2022/09/14 04:24:03;;;;;;;1.88;0.90;;;;;;;;;;4987517;28;20057;-74
2022/09/14 04:26:45;;;;;;;4.18;1.40;;;;;;;;;;4987406;28;20053;-74
2022/09/14 04:29:15;;;;;;;2.83;1.05;;;;;;;;;;4987214;28;20047;-72
2022/09/14 04:31:44;;;;;;;4.47;1.20;;;;;;;;;;4987212;28;20141;-75
2022/09/14 04:34:15;;;;;;;2.08;0.88;;;;;;;;;;4987529;28;20046;-72
2022/09/14 04:36:44;;;;;;;;;;;;;;;;;;4988086;28;20050;-72
2022/09/14 04:39:14;;;;;;;3.80;1.10;;;;;;;;;;4987634;28;19921;-71
2022/09/14 04:41:44;;;;;;;2.58;1.08;;;;;;;;;;4986696;28;20046;-72
2022/09/14 04:44:13;;;;;;;;;;;;;;;;;;4987689;28;20417;-73
2022/09/14 04:46:43;;;;;;;3.80;1.13;;;;;;;;;;4987324;28;19933;-75
2022/09/14 04:49:17;;;;;;;4.30;0.85;;;;;;;;;;4986824;28;20051;-74
2022/09/14 04:51:48;;;;;;;3.63;1.20;;;;;;;;;;4987337;28;20516;-72
2022/09/14 04:54:18;;;;;;;2.33;0.88;;;;;;;;;;4987110;28;20058;-74
2022/09/14 04:56:47;;;;;;;2.15;1.00;;;;;;;;;;4986774;28;20058;-75
2022/09/14 04:59:17;;;;;;;1.45;1.10;;;;;;;;;;4987239;28;20512;-74
2022/09/14 05:01:47;;;;;;;3.40;0.95;;;;;;;;;;4987050;28;20063;-72
2022/09/14 05:04:17;;;;;;;5.85;1.10;;;;;;;;;;4986847;28;20592;-75
2022/09/14 05:06:49;;;;;;;4.05;0.95;;;;;;;;;;4987130;28;20042;-71
2022/09/14 05:09:19;;;;;;;2.08;0.93;;;;;;;;;;4986610;28;20073;-74
2022/09/14 05:11:50;;;;;;;4.28;1.23;;;;;;;;;;4986600;28;20146;-73
2022/09/14 05:14:20;;;;;;;2.78;1.20;;;;;;;;;;4986803;28;20053;-72
2022/09/14 05:16:50;;;;;;;3.92;1.20;;;;;;;;;;4986406;28;20042;-74
2022/09/14 05:19:20;;;;;;;1.08;0.60;;;;;;;;;;4987894;28;20046;-75
2022/09/14 05:21:49;;;;;;;;;;;;;;;;;;4990472;28;20056;-72
2022/09/14 05:24:19;;;;;;;3.10;1.25;;;;;;;;;;4990464;28;19921;-73
2022/09/14 05:26:52;;;;;;;6.32;0.93;;;;;;;;;;4990891;28;20050;-73
2022/09/14 05:29:28;;;;;;;2.63;0.80;;;;;;;;;;4990191;28;20050;-71
2022/09/14 05:31:58;;;;;;;3.00;1.25;;;;;;;;;;4990325;28;20050;-73
2022/09/14 05:34:28;;;;;;;1.88;0.80;;;;;;;;;;4989400;28;20062;-72
2022/09/14 05:36:57;;;;;;;;;;;;;;;;;;4990800;28;20054;-74
2022/09/14 05:39:28;;;;;;;2.38;1.02;;;;;;;;;;4988850;28;19922;-74
2022/09/14 05:41:57;;;;;;;1.90;0.73;;;;;;;;;;4989823;28;20053;-74
2022/09/14 05:44:27;;;;;;;2.35;1.05;;;;;;;;;;4990395;28;20050;-73
2022/09/14 05:46:56;;;;;;;;;;;;;;;;;;4990363;28;20080;-75
2022/09/14 05:49:26;;;;;;;2.55;0.70;;;;;;;;;;4990084;28;19922;-75
2022/09/14 05:51:56;;;;;;;4.40;1.05;;;;;;;;;;4990479;28;20054;-72
2022/09/14 05:54:25;;;;;;;4.88;0.90;;;;;;;;;;4990020;28;20061;-73
2022/09/14 05:56:54;;;;;;;;;;;;;;;;;;4989036;28;20054;-73
2022/09/14 05:59:24;;;;;;;2.45;0.93;;;;;;;;;;4989289;28;19925;-75
2022/09/14 06:01:54;;;;;;;1.75;1.08;;;;;;;;;;4989720;28;20081;-75
2022/09/14 06:04:25;;;;;;;3.80;0.90;;;;;;;;;;4989977;28;20054;-73
2022/09/14 06:06:54;;;;;;;1.60;1.08;;;;;;;;;;4989541;28;20061;-72
2022/09/14 06:09:45;;;;;;;2.85;0.93;;;;;;;;;;4989134;28;20054;-74
2022/09/14 06:12:14;;;;;;;3.95;1.35;;;;;;;;;;4989556;28;20046;-75
2022/09/14 06:14:44;;;;;;;2.75;1.00;;;;;;;;;;4989617;28;20382;-74
2022/09/14 06:17:13;;;;;;;;;;;;;;;;;;4990305;28;20042;-72
2022/09/14 06:19:43;;;;;;;2.65;0.80;;;;;;;;;;4989723;28;19925;-74
2022/09/14 06:22:13;;;;;;;4.05;1.13;;;;;;;;;;4989012;28;20038;-74
2022/09/14 06:24:43;;;;;;;3.47;1.10;;;;;;;;;;4989088;28;20053;-73
2022/09/14 06:27:14;;;;;;;1.75;0.93;;;;;;;;;;4989159;28;20046;-74
2022/09/14 06:29:44;;;;;;;4.97;1.10;;;;;;;;;;4989499;28;20413;-73
2022/09/14 06:32:13;;;;;;;3.80;1.30;;;;;;;;;;4988461;28;20054;-72
2022/09/14 06:34:42;;;;;;;;;;;;;;;;;;4990099;28;20061;-71
2022/09/14 06:37:12;;;;;;;2.47;1.10;;;;;;;;;;4987722;28;19933;-73
2022/09/14 06:39:42;;;;;;;4.20;1.00;;;;;;;;;;4989004;28;20054;-72
2022/09/14 06:42:12;;;;;;;3.10;1.00;;;;;;;;;;4989082;28;20050;-72
2022/09/14 06:44:41;;;;;;;2.80;1.20;;;;;;;;;;4989534;28;20108;-72
2022/09/14 06:47:11;;;;;;;3.10;1.27;;;;;;;;;;4989312;28;20057;-73
2022/09/14 06:49:40;;;;;;;;;;;;;;;;;;4988113;28;20065;-71
2022/09/14 06:52:10;;;;;;;3.38;1.23;;;;;;;;;;4989006;28;19921;-72
2022/09/14 06:54:39;;;;;;;;;;;;;;;;;;4989309;28;20046;-73
2022/09/14 06:57:09;;;;;;;1.40;0.85;;;;;;;;;;4989133;28;19944;-72
2022/09/14 06:59:39;;;;;;;1.25;0.95;;;;;;;;;;4987388;28;20061;-73
2022/09/14 07:02:11;;;;;;;3.70;1.15;;;;;;;;;;4988697;28;20141;-74
2022/09/14 07:04:42;;;;;;;2.38;1.23;;;;;;;;;;4987349;28;20050;-72
2022/09/14 07:07:15;;;;;;;3.55;1.08;;;;;;;;;;4988555;28;20086;-71
2022/09/14 07:09:45;;;;;;;2.08;0.95;;;;;;;;;;4988616;28;20066;-71
2022/09/14 07:12:15;;;;;;;3.30;1.30;;;;;;;;;;4989112;28;20497;-73
2022/09/14 07:14:46;;;;;;;3.50;1.17;;;;;;;;;;4987937;28;20057;-72
2022/09/14 07:17:15;;;;;;;;;;;;;;;;;;4989110;28;20050;-71
2022/09/14 07:19:45;;;;;;;2.30;1.08;;;;;;;;;;4988173;28;19925;-73
2022/09/14 07:22:14;;;;;;;;;;;;;;;;;;4988399;28;20068;-72
2022/09/14 07:24:43;;;;;;;2.15;1.02;;;;;;;;;;4987989;28;19925;-71
2022/09/14 07:27:13;;;;;;;1.73;1.25;;;;;;;;;;4988490;28;20038;-73
2022/09/14 07:29:43;;;;;;;3.13;1.00;;;;;;;;;;4987446;28;20073;-72
2022/09/14 07:32:12;;;;;;;;;;;;;;;;;;4988649;28;20498;-71
2022/09/14 07:34:43;;;;;;;2.53;1.27;;;;;;;;;;4986957;28;19921;-73
2022/09/14 07:37:12;;;;;;;4.32;1.38;;;;;;;;;;4988793;28;20057;-73
2022/09/14 07:39:42;;;;;;;;;;;;;;;;;;4988950;28;20054;-72
2022/09/14 07:42:11;;;;;;;3.33;1.20;;;;;;;;;;4986446;28;19926;-73
2022/09/14 07:44:41;;;;;;;;;;;;;;;;;;4988304;28;20042;-73
2022/09/14 07:47:10;;;;;;;3.45;1.20;;;;;;;;;;4987540;28;20287;-73
2022/09/14 07:49:39;;;;;;;;;;;;;;;;;;4988143;28;20047;-72
2022/09/14 07:52:10;;;;;;;3.58;1.20;;;;;;;;;;4987702;28;20340;-72
2022/09/14 07:54:40;;;;;;;1.85;0.98;;;;;;;;;;4987393;28;20489;-74
2022/09/14 07:57:10;;;;;;;2.80;1.02;;;;;;;;;;4987781;28;20050;-74
2022/09/14 07:59:40;;;;;;;;;;;;;;;;;;4988250;28;20051;-73
2022/09/14 08:02:10;;;;;;;4.38;1.48;;;;;;;;;;4987802;28;19937;-72
2022/09/14 08:04:41;;;;;;;2.97;1.48;;;;;;;;;;4987765;28;20042;-71
2022/09/14 08:07:11;;;;;;;2.25;1.13;;;;;;;;;;4992078;28;20650;-72
2022/09/14 08:09:41;;;;;;;3.63;1.10;;;;;;;;;;4987715;28;20477;-73
2022/09/14 08:12:10;;;;;;;1.50;1.20;;;;;;;;;;4987739;28;20061;-74
2022/09/14 08:14:40;;;;;;;4.95;2.08;;;;;;;;;;4987528;28;20061;-74
2022/09/14 08:17:09;;;;;;;3.80;1.48;;;;;;;;;;4987791;28;20073;-73
2022/09/14 08:19:40;;;;;;;3.30;1.55;;;;;;;;;;4987297;28;20073;-72
2022/09/14 08:22:09;;;;;;;5.78;1.33;;;;;;;;;;4987697;28;20066;-73
2022/09/14 08:24:39;;;;;;;4.13;1.40;;;;;;;;;;4987720;28;20062;-73
2022/09/14 08:27:10;;;;;;;1.85;1.30;;;;;;;;;;4987788;28;20050;-72
2022/09/14 08:29:40;;;;;;;5.43;1.73;;;;;;;;;;4993438;28;20062;-72
2022/09/14 08:32:12;;;;;;;5.22;2.03;;;;;;;;;;4987668;28;20058;-72
2022/09/14 08:34:42;;;;;;;5.20;3.15;;;;;;;;;;4990516;28;20054;-72
2022/09/14 08:37:12;;;;;;;6.40;2.30;;;;;;;;;;4986975;28;20057;-73
2022/09/14 08:39:42;;;;;;;6.03;2.20;;;;;;;;;;4986987;28;20061;-72
2022/09/14 08:42:23;;;;;;;4.25;2.60;;;;;;;;;;4992609;28;20397;-71
2022/09/14 08:44:58;;;;;;;3.28;2.22;;;;;;;;;;4990740;28;20058;-73
2022/09/14 08:47:37;;;;;;;5.57;2.10;;;;;;;;;;4989438;28;20528;-74
2022/09/14 08:50:13;;;;;;;5.63;2.30;;;;;;;;;;4988144;28;20069;-73
2022/09/14 08:52:52;;;;;;;4.25;2.10;;;;;;;;;;4992132;28;20055;-76
2022/09/14 08:55:28;;;;;;;6.45;2.88;;;;;;;;;;4993907;28;20244;-73
2022/09/14 08:58:17;;;;;;;8.35;2.90;;;;;;;;;;4993317;28;20061;-74
2022/09/14 09:00:50;;;;;;;6.43;2.67;;;;;;;;;;4991209;28;20050;-76
2022/09/14 09:03:37;;;;;;;3.92;1.92;;;;;;;;;;4995080;28;20054;-75
2022/09/14 09:06:23;;;;;;;3.25;1.67;;;;;;;;;;4993696;28;20529;-74
2022/09/14 09:09:18;;;;;;;3.63;2.05;;;;;;;;;;4991852;28;20547;-75
2022/09/14 09:11:51;;;;;;;7.32;2.08;;;;;;;;;;4991393;28;20057;-69
2022/09/14 09:14:30;;;;;;;12.68;2.53;;;;;;;;;;4993699;28;20113;-73
2022/09/14 09:17:05;;;;;;;6.80;2.70;;;;;;;;;;4992704;28;20054;-74
2022/09/14 09:19:46;;;;;;;5.70;3.00;;;;;;;;;;4990877;28;20069;-72
2022/09/14 09:22:21;;;;;;;10.65;3.40;;;;;;;;;;4995340;28;20054;-73
2022/09/14 09:24:54;;;;;;;7.43;4.00;;;;;;;;;;4993473;28;20069;-71
2022/09/14 09:27:25;;;;;;;9.13;4.70;;;;;;;;;;4991826;28;20058;-72
2022/09/14 09:29:55;;;;;;;7.40;4.70;;;;;;;;;;4990663;28;20065;-72
2022/09/14 09:32:28;;;;;;;6.13;4.38;;;;;;;;;;4989620;28;20050;-75
2022/09/14 09:35:21;;;;;;;10.05;4.70;;;;;;;;;;4993319;28;20368;-72
2022/09/14 09:38:15;;;;;;;7.95;4.45;;;;;;;;;;4988836;28;20062;-72
2022/09/14 09:40:59;;;;;;;6.45;4.70;;;;;;;;;;4988691;28;20065;-73
2022/09/14 09:43:29;;;;;;;6.55;4.20;;;;;;;;;;4989220;28;20418;-74
2022/09/14 09:46:17;;;;;;;;;;;;;;;;;;4990806;28;20053;-73
2022/09/14 09:48:47;;;;;;;7.43;5.15;;;;;;;;;;4990429;28;20376;-74
2022/09/14 09:51:23;;;;;;;8.88;5.00;;;;;;;;;;4988707;28;20054;-74
2022/09/14 09:53:56;;;;;;;9.63;5.03;;;;;;;;;;4989848;28;20509;-75
2022/09/14 09:56:31;;;;;;;8.45;6.20;;;;;;;;;;4990484;28;20592;-74
2022/09/14 09:59:02;;;;;;;8.23;5.63;;;;;;;;;;4990258;28;20058;-73
2022/09/14 10:01:34;;;;;;;11.90;5.70;;;;;;;;;;4990685;28;20054;-74
2022/09/14 10:04:17;;;;;;;9.05;6.13;;;;;;;;;;4990364;28;20061;-74
2022/09/14 10:06:50;;;;;;;10.48;6.10;;;;;;;;;;4988977;28;20043;-73
2022/09/14 10:09:23;;;;;;;11.15;6.00;;;;;;;;;;4988942;28;20429;-75
2022/09/14 10:11:59;;;;;;;11.02;8.10;;;;;;;;;;4989837;28;20042;-74
2022/09/14 10:14:32;;;;;;;11.07;6.70;;;;;;;;;;4990084;28;20050;-77
2022/09/14 10:17:21;;;;;;;12.73;7.10;;;;;;;;;;4988154;28;20038;-78
2022/09/14 10:19:53;;;;;;;11.32;5.82;;;;;;;;;;4989044;28;20417;-79
2022/09/14 10:22:35;;;;;;;9.18;5.90;;;;;;;;;;4988219;28;20058;-73
2022/09/14 10:25:16;;;;;;;11.55;7.78;;;;;;;;;;4989078;28;20054;-77
2022/09/14 10:27:54;;;;;;;8.43;4.65;;;;;;;;;;4989182;28;20047;-76
2022/09/14 10:30:26;;;;;;;8.05;4.97;;;;;;;;;;4988740;28;20062;-74
2022/09/14 10:33:05;;;;;;;7.28;5.22;;;;;;;;;;4989090;28;20410;-71
2022/09/14 10:35:44;;;;;;;7.38;5.32;;;;;;;;;;4989224;28;20054;-71
2022/09/14 10:38:40;;;;;;;8.02;4.93;;;;;;;;;;4989187;28;20057;-73
2022/09/14 10:41:32;;;;;;;7.45;5.30;;;;;;;;;;4989455;28;20061;-74
2022/09/14 10:44:30;;;;;;;10.43;5.50;;;;;;;;;;4988323;28;20050;-74
2022/09/14 10:47:09;;;;;;;8.98;6.05;;;;;;;;;;4988871;28;20050;-77
2022/09/14 10:49:39;;;;;;;6.45;3.80;;;;;;;;;;4989017;28;20057;-73
2022/09/14 10:52:18;;;;;;;8.25;3.67;;;;;;;;;;4988624;28;20047;-74
2022/09/14 10:55:15;;;;;;;6.18;3.80;;;;;;;;;;4989005;28;20065;-77
2022/09/14 10:57:58;;;;;;;5.57;4.63;;;;;;;;;;4988924;28;20497;-77
2022/09/14 11:00:35;;;;;;;8.18;5.05;;;;;;;;;;4988327;28;20058;-72
2022/09/14 11:03:34;;;;;;;7.05;4.22;;;;;;;;;;4988371;28;20077;-76
2022/09/14 11:06:18;;;;;;;7.00;3.92;;;;;;;;;;4987978;28;20054;-72
2022/09/14 11:09:01;;;;;;;8.82;5.32;;;;;;;;;;4987869;28;20050;-76
2022/09/14 11:11:48;;;;;;;9.55;4.97;;;;;;;;;;4988341;28;20053;-71
2022/09/14 11:14:24;;;;;;;7.53;5.40;;;;;;;;;;4988924;28;20049;-75
2022/09/14 11:17:14;;;;;;;7.93;5.25;;;;;;;;;;4988298;28;20073;-73
2022/09/14 11:19:57;;;;;;;10.50;4.85;;;;;;;;;;4987173;28;20054;-72
2022/09/14 11:22:38;;;;;;;7.97;4.18;;;;;;;;;;4987891;28;20042;-75
2022/09/14 11:25:32;;;;;;;8.02;5.90;;;;;;;;;;4988661;28;20057;-74
2022/09/14 11:28:43;;;;;;;8.23;4.18;;;;;;;;;;4987909;28;20057;-79
2022/09/14 11:31:27;;;;;;;6.50;4.53;;;;;;;;;;4986460;28;20050;-75
2022/09/14 11:34:20;;;;;;;8.32;4.93;;;;;;;;;;4986276;28;20053;-74
2022/09/14 11:37:02;;;;;;;6.80;4.55;;;;;;;;;;4987091;28;20046;-72
2022/09/14 11:39:41;;;;;;;5.75;3.92;;;;;;;;;;4985620;28;20413;-71
2022/09/14 11:42:45;;;;;;;8.95;4.75;;;;;;;;;;4986806;28;20054;-69
2022/09/14 11:45:44;;;;;;;7.18;3.92;;;;;;;;;;4987307;28;20509;-75
2022/09/14 11:48:29;;;;;;;7.15;3.33;;;;;;;;;;4987703;28;20050;-75
2022/09/14 11:51:47;;;;;;;5.53;3.58;;;;;;;;;;4988021;28;20057;-77
2022/09/14 11:54:20;;;;;;;5.10;3.13;;;;;;;;;;4987470;28;20049;-74
2022/09/14 11:56:54;;;;;;;5.93;3.10;;;;;;;;;;4987278;28;20050;-76
2022/09/14 11:59:40;;;;;;;6.80;2.70;;;;;;;;;;4988381;28;20059;-74
2022/09/14 12:02:22;;;;;;;4.70;1.90;;;;;;;;;;4987388;28;20054;-72
2022/09/14 12:05:04;;;;;;;3.67;1.45;;;;;;;;;;4987873;28;20063;-70
2022/09/14 12:07:46;;;;;;;5.25;1.25;;;;;;;;;;4987178;28;20069;-72
2022/09/14 12:10:20;;;;;;;3.33;0.70;;;;;;;;;;4987392;28;20425;-72
2022/09/14 12:12:51;;;;;;;7.93;1.17;;;;;;;;;;4986246;28;20057;-71
2022/09/14 12:15:33;;;;;;;5.07;1.38;;;;;;;;;;4987828;28;20063;-74
2022/09/14 12:18:06;;;;;;;4.30;1.13;;;;;;;;;;4987369;28;20042;-74
2022/09/14 12:20:48;;;;;;;3.80;0.77;;;;;;;;;;4987102;28;20054;-73
2022/09/14 12:23:31;;;;;;;5.35;0.93;;;;;;;;;;4987023;28;20050;-74
2022/09/14 12:26:08;;;;;;;2.63;0.77;;;;;;;;;;4986838;28;20069;-75
2022/09/14 12:28:47;;;;;;;4.18;1.10;;;;;;;;;;4987000;28;20050;-72
2022/09/14 12:31:31;;;;;;;4.03;0.75;;;;;;;;;;4987806;28;20061;-74
2022/09/14 12:34:22;;;;;;;4.72;1.05;;;;;;;;;;4986970;28;20042;-75
2022/09/14 12:36:52;;;;;;;4.63;0.88;;;;;;;;;;4987649;28;20515;-72
2022/09/14 12:39:23;;;;;;;5.32;1.35;;;;;;;;;;4987040;28;20053;-72
2022/09/14 12:41:54;;;;;;;4.28;1.20;;;;;;;;;;4987006;28;20058;-71
2022/09/14 12:44:32;;;;;;;3.45;1.02;;;;;;;;;;4987524;28;20413;-72
2022/09/14 12:47:23;;;;;;;5.90;1.17;;;;;;;;;;4986967;28;20497;-73
2022/09/14 12:49:59;;;;;;;4.88;1.20;;;;;;;;;;4987454;28;20065;-73
2022/09/14 12:52:40;;;;;;;;;;;;;;;;;;4988060;28;20065;-73
2022/09/14 12:55:41;;;;;;;4.68;1.08;;;;;;;;;;4986969;28;19925;-74
2022/09/14 12:58:36;;;;;;;3.30;1.00;;;;;;;;;;4987062;28;20050;-76
2022/09/14 13:01:25;;;;;;;5.32;1.48;;;;;;;;;;4987197;28;20054;-73
2022/09/14 13:03:57;;;;;;;4.68;1.10;;;;;;;;;;4987190;28;20481;-72
2022/09/14 13:06:44;;;;;;;9.38;1.23;;;;;;;;;;4990173;28;20050;-72
2022/09/14 13:09:23;;;;;;;4.25;1.25;;;;;;;;;;4988649;28;20046;-73
2022/09/14 13:12:01;;;;;;;4.00;1.23;;;;;;;;;;4986960;28;20051;-73
2022/09/14 13:14:46;;;;;;;5.55;1.23;;;;;;;;;;4987322;28;20042;-76
2022/09/14 13:17:16;;;;;;;4.70;0.90;;;;;;;;;;4986355;28;20497;-73
2022/09/14 13:20:04;;;;;;;4.47;1.00;;;;;;;;;;4987163;28;20042;-71
2022/09/14 13:22:41;;;;;;;6.38;1.40;;;;;;;;;;4986540;28;20077;-78
2022/09/14 13:25:37;;;;;;;3.70;1.05;;;;;;;;;;4986725;28;20527;-73
2022/09/14 13:28:14;;;;;;;3.25;1.10;;;;;;;;;;4970559;28;20054;-73
2022/09/14 13:30:54;;;;;;;3.75;0.90;;;;;;;;;;4986841;28;20054;-72
2022/09/14 13:33:25;;;;;;;4.13;0.80;;;;;;;;;;4986451;28;20405;-76
2022/09/14 13:36:00;;;;;;;3.03;0.95;;;;;;;;;;4986750;28;20544;-73
2022/09/14 13:38:36;;;;;;;3.03;0.82;;;;;;;;;;4986677;28;20054;-73
2022/09/14 13:41:12;;;;;;;3.78;0.55;;;;;;;;;;4987677;28;20073;-74
2022/09/14 13:43:44;;;;;;;6.55;0.90;;;;;;;;;;4990284;28;20046;-72
2022/09/14 13:46:14;;;;;;;3.72;0.80;;;;;;;;;;4990104;28;20057;-74
2022/09/14 13:48:49;;;;;;;3.78;0.77;;;;;;;;;;4989758;28;20042;-72
2022/09/14 13:51:26;;;;;;;1.48;0.63;;;;;;;;;;4989347;28;20058;-73
2022/09/14 13:53:58;;;;;;;6.88;1.70;;;;;;;;;;4990176;28;20050;-74
2022/09/14 13:56:33;;;;;;;3.45;0.90;;;;;;;;;;4989803;28;20050;-76
2022/09/14 13:59:06;;;;;;;3.17;1.60;;;;;;;;;;4990312;28;20054;-79
2022/09/14 14:01:58;;;;;;;3.60;1.00;;;;;;;;;;4989943;28;20050;-71
2022/09/14 14:04:34;;;;;;;3.03;0.80;;;;;;;;;;4988731;28;20054;-73
2022/09/14 14:07:12;;;;;;;3.17;1.10;;;;;;;;;;4988627;28;20054;-72
2022/09/14 14:09:45;;;;;;;4.97;1.25;;;;;;;;;;4989725;28;20043;-71
2022/09/14 14:12:38;;;;;;;4.60;0.77;;;;;;;;;;4990142;28;20050;-74
2022/09/14 14:15:11;;;;;;;4.60;0.93;;;;;;;;;;4990130;28;20057;-74
2022/09/14 14:17:42;;;;;;;3.85;0.80;;;;;;;;;;4989364;28;20050;-73
2022/09/14 14:20:29;;;;;;;4.60;0.70;;;;;;;;;;4989558;28;20051;-73
2022/09/14 14:23:24;;;;;;;3.97;0.85;;;;;;;;;;4989264;28;20081;-72
2022/09/14 14:26:07;;;;;;;5.85;1.30;;;;;;;;;;4988986;28;20046;-74
2022/09/14 14:28:40;;;;;;;6.45;0.85;;;;;;;;;;4989085;28;20057;-77
2022/09/14 14:31:18;;;;;;;5.18;1.00;;;;;;;;;;4989622;28;20045;-73
2022/09/14 14:33:52;;;;;;;6.68;1.10;;;;;;;;;;4988928;28;20061;-72
2022/09/14 14:36:22;;;;;;;2.65;0.70;;;;;;;;;;4989128;28;20046;-74
2022/09/14 14:38:53;;;;;;;3.35;0.80;;;;;;;;;;4989963;28;20046;-72
2022/09/14 14:41:23;;;;;;;4.95;1.20;;;;;;;;;;4988870;28;20061;-72
2022/09/14 14:43:52;;;;;;;4.55;1.10;;;;;;;;;;4989426;28;20601;-72
2022/09/14 14:46:23;;;;;;;3.70;1.08;;;;;;;;;;4989176;28;20069;-75
2022/09/14 14:48:54;;;;;;;4.05;0.80;;;;;;;;;;4988354;28;20387;-72
2022/09/14 14:51:24;;;;;;;8.93;1.40;;;;;;;;;;4988311;28;20046;-71
2022/09/14 14:53:54;;;;;;;2.63;0.85;;;;;;;;;;4989129;28;20485;-73
2022/09/14 14:56:24;;;;;;;5.05;1.00;;;;;;;;;;4989455;28;20057;-75
2022/09/14 14:58:54;;;;;;;6.75;1.20;;;;;;;;;;4989035;28;20042;-80
2022/09/14 15:01:29;;;;;;;5.55;1.17;;;;;;;;;;4988854;28;20050;-75
2022/09/14 15:03:59;;;;;;;3.83;1.00;;;;;;;;;;4989067;28;20059;-71
2022/09/14 15:06:29;;;;;;;5.32;0.75;;;;;;;;;;4988673;28;20058;-75
2022/09/14 15:08:59;;;;;;;6.88;0.90;;;;;;;;;;4988945;28;20410;-74
2022/09/14 15:11:30;;;;;;;4.05;1.10;;;;;;;;;;4988423;28;20069;-73
2022/09/14 15:14:00;;;;;;;4.18;1.00;;;;;;;;;;4988757;28;20400;-78
2022/09/14 15:16:30;;;;;;;4.80;0.77;;;;;;;;;;4987185;28;20046;-75
2022/09/14 15:19:00;;;;;;;5.40;1.10;;;;;;;;;;4988402;28;20046;-72
2022/09/14 15:21:30;;;;;;;3.92;0.85;;;;;;;;;;4988538;28;20576;-71
2022/09/14 15:24:00;;;;;;;6.10;1.30;;;;;;;;;;4988299;28;20046;-73
2022/09/14 15:26:30;;;;;;;5.30;1.02;;;;;;;;;;4988465;28;20077;-75
2022/09/14 15:29:00;;;;;;;5.25;1.10;;;;;;;;;;4988547;28;20077;-77
2022/09/14 15:31:30;;;;;;;2.95;0.77;;;;;;;;;;4988507;28;20054;-72
2022/09/14 15:34:00;;;;;;;3.20;0.70;;;;;;;;;;4987905;28;20050;-75
2022/09/14 15:36:51;;;;;;;5.13;1.10;;;;;;;;;;4987690;28;20061;-72
2022/09/14 15:39:23;;;;;;;3.78;0.90;;;;;;;;;;4988258;28;20046;-73
2022/09/14 15:41:54;;;;;;;6.53;1.10;;;;;;;;;;4988443;28;20046;-72